Flight Track Log - Related Links

Times and Time Zones

All times are in EST time to prevent confusion due to time zone crossing. See the EJA619 flight status page for this flight to view local times or setup timezone preferences in your user account.

Time Position Orientation Groundspeed Altitude Reporting Facility
EST Latitude Longitude Course Direction KTS MPH feet Rate Location/Type
Tue 06:17:01 PM 28.0333 -82.5333 360° North 197 227 3,600  Level Tampa TRACON
Tue 06:18:01 PM 28.0500 -82.4667 74° East 299 344 7,600 3,737 Climbing Tampa TRACON
Tue 06:18:55 PM 28.0333 -82.3833 103° East 305 351 10,700 1,700 Climbing Tampa TRACON
Tue 06:20:01 PM 28.0167 -82.2667 99° East 374 430 11,000 58 Climbing Tampa TRACON
Tue 06:22:23 PM 28.0000 -81.9833 94° East 380 437 10,900  Descending Orlando TRACON
Tue 06:23:23 PM 28.0500 -81.8833 60° Northeast 373 429 11,000  Climbing Orlando TRACON
Tue 06:24:23 PM 28.1000 -81.7833 60° Northeast 374 430 10,900 -350 Descending Orlando TRACON
Tue 06:25:23 PM 28.1333 -81.6667 72° East 350 403 10,300 -800 Descending Orlando TRACON
Tue 06:26:23 PM 28.1500 -81.5667 79° East 325 374 9,300 -947 Descending Orlando TRACON
Tue 06:27:17 PM 28.1667 -81.5000 74° East 304 350 8,500 -947 Descending Orlando TRACON
Tue 06:28:17 PM 28.1833 -81.4000 79° East 269 310 7,500 -1,550 Descending Orlando TRACON
Tue 06:29:17 PM 28.2333 -81.3500 41° Northeast 259 298 5,400 -2,200 Descending Orlando TRACON
Tue 06:30:17 PM 28.2833 -81.3167 30° Northeast 184 212 3,100 -1,895 Descending Orlando TRACON
Tue 06:31:11 PM 28.3333 -81.3167 360° North 156 180 1,800 -1,100 Descending Orlando TRACON
Tue 06:32:17 PM 28.3667 -81.3167 360° North 140 161 900 -714 Descending Orlando TRACON
Tue 06:33:17 PM 28.4000 -81.3167 360° North 122 140 300 -600 Descending Orlando TRACON
Tue 06:35:00 PM 28.4167 -81.3000 16° North  Level FlightAware
Tue 06:42:00 PM 28.4294 -81.3090 16° North  Level Estimated
Tue 06:43:00 PM 28.4294 -81.3090 16° North  Level Estimated
Tue 06:44:00 PM 28.4294 -81.3090 16° North  Level Estimated

Login

Don't have an account? Register now (free) for customized features, flight alerts, and more!